sensor_id;sensor_type;location;lat;lon;timestamp;P1;durP1;ratioP1;P2;durP2;ratioP2
24030;SDS011;12240;51.142;22.486;2023-08-12T00:00:28;15.73;;;5.47;;
24030;SDS011;12240;51.142;22.486;2023-08-12T00:02:57;12.55;;;5.38;;
24030;SDS011;12240;51.142;22.486;2023-08-12T00:05:25;14.55;;;5.43;;
24030;SDS011;12240;51.142;22.486;2023-08-12T00:07:53;13.52;;;5.93;;
24030;SDS011;12240;51.142;22.486;2023-08-12T00:10:21;12.13;;;5.78;;
24030;SDS011;12240;51.142;22.486;2023-08-12T00:12:51;10.60;;;4.90;;
24030;SDS011;12240;51.142;22.486;2023-08-12T00:15:19;11.95;;;4.90;;
24030;SDS011;12240;51.142;22.486;2023-08-12T00:17:48;13.27;;;4.18;;
24030;SDS011;12240;51.142;22.486;2023-08-12T00:20:16;12.10;;;5.07;;
24030;SDS011;12240;51.142;22.486;2023-08-12T00:22:44;10.85;;;4.15;;
24030;SDS011;12240;51.142;22.486;2023-08-12T00:25:14;10.80;;;4.40;;
24030;SDS011;12240;51.142;22.486;2023-08-12T00:27:42;10.93;;;5.15;;
24030;SDS011;12240;51.142;22.486;2023-08-12T00:30:10;10.25;;;4.68;;
24030;SDS011;12240;51.142;22.486;2023-08-12T00:32:39;12.88;;;5.05;;
24030;SDS011;12240;51.142;22.486;2023-08-12T00:35:08;13.30;;;4.93;;
24030;SDS011;12240;51.142;22.486;2023-08-12T00:37:36;12.48;;;4.63;;
24030;SDS011;12240;51.142;22.486;2023-08-12T00:40:04;11.05;;;5.00;;
24030;SDS011;12240;51.142;22.486;2023-08-12T00:42:37;16.58;;;5.63;;
24030;SDS011;12240;51.142;22.486;2023-08-12T00:45:08;13.25;;;5.13;;
24030;SDS011;12240;51.142;22.486;2023-08-12T00:47:41;13.40;;;5.03;;
24030;SDS011;12240;51.142;22.486;2023-08-12T00:50:09;10.02;;;4.72;;
24030;SDS011;12240;51.142;22.486;2023-08-12T00:52:41;10.85;;;4.78;;
24030;SDS011;12240;51.142;22.486;2023-08-12T00:55:12;12.55;;;5.15;;
24030;SDS011;12240;51.142;22.486;2023-08-12T00:57:41;9.65;;;5.10;;
24030;SDS011;12240;51.142;22.486;2023-08-12T01:00:09;13.00;;;4.40;;
24030;SDS011;12240;51.142;22.486;2023-08-12T01:02:39;12.23;;;4.50;;
24030;SDS011;12240;51.142;22.486;2023-08-12T01:05:13;14.45;;;4.82;;
24030;SDS011;12240;51.142;22.486;2023-08-12T01:07:43;10.60;;;4.28;;
24030;SDS011;12240;51.142;22.486;2023-08-12T01:10:12;11.82;;;5.10;;
24030;SDS011;12240;51.142;22.486;2023-08-12T01:12:50;10.57;;;4.63;;
24030;SDS011;12240;51.142;22.486;2023-08-12T01:15:27;11.95;;;4.38;;
24030;SDS011;12240;51.142;22.486;2023-08-12T01:17:56;10.60;;;4.80;;
24030;SDS011;12240;51.142;22.486;2023-08-12T01:20:27;11.57;;;4.20;;
24030;SDS011;12240;51.142;22.486;2023-08-12T01:25:42;9.77;;;4.93;;
24030;SDS011;12240;51.142;22.486;2023-08-12T01:28:10;12.77;;;4.57;;
24030;SDS011;12240;51.142;22.486;2023-08-12T01:30:40;10.98;;;5.32;;
24030;SDS011;12240;51.142;22.486;2023-08-12T01:33:33;12.68;;;4.65;;
24030;SDS011;12240;51.142;22.486;2023-08-12T01:36:20;12.13;;;4.25;;
24030;SDS011;12240;51.142;22.486;2023-08-12T01:38:49;11.43;;;4.85;;
24030;SDS011;12240;51.142;22.486;2023-08-12T01:41:19;10.80;;;4.88;;
24030;SDS011;12240;51.142;22.486;2023-08-12T01:43:50;9.23;;;4.53;;
24030;SDS011;12240;51.142;22.486;2023-08-12T01:46:18;11.10;;;4.85;;
24030;SDS011;12240;51.142;22.486;2023-08-12T01:48:48;11.38;;;4.10;;
24030;SDS011;12240;51.142;22.486;2023-08-12T01:51:17;9.63;;;4.03;;
24030;SDS011;12240;51.142;22.486;2023-08-12T01:53:45;9.80;;;4.60;;
24030;SDS011;12240;51.142;22.486;2023-08-12T01:56:13;10.15;;;4.25;;
24030;SDS011;12240;51.142;22.486;2023-08-12T01:58:42;7.57;;;4.13;;
24030;SDS011;12240;51.142;22.486;2023-08-12T02:01:10;8.95;;;4.10;;
24030;SDS011;12240;51.142;22.486;2023-08-12T02:03:38;12.52;;;4.53;;
24030;SDS011;12240;51.142;22.486;2023-08-12T02:06:07;7.03;;;3.97;;
24030;SDS011;12240;51.142;22.486;2023-08-12T02:08:35;8.98;;;3.97;;
24030;SDS011;12240;51.142;22.486;2023-08-12T02:11:03;10.23;;;4.13;;
24030;SDS011;12240;51.142;22.486;2023-08-12T02:13:31;8.65;;;4.25;;
24030;SDS011;12240;51.142;22.486;2023-08-12T02:16:00;11.35;;;4.07;;
24030;SDS011;12240;51.142;22.486;2023-08-12T02:18:29;9.82;;;4.00;;
24030;SDS011;12240;51.142;22.486;2023-08-12T02:20:57;9.98;;;4.68;;
24030;SDS011;12240;51.142;22.486;2023-08-12T02:23:26;14.20;;;4.60;;
24030;SDS011;12240;51.142;22.486;2023-08-12T02:25:54;10.55;;;4.03;;
24030;SDS011;12240;51.142;22.486;2023-08-12T02:28:22;10.38;;;4.55;;
24030;SDS011;12240;51.142;22.486;2023-08-12T02:30:51;10.65;;;4.22;;
24030;SDS011;12240;51.142;22.486;2023-08-12T02:33:20;9.77;;;3.72;;
24030;SDS011;12240;51.142;22.486;2023-08-12T02:35:48;9.15;;;3.53;;
24030;SDS011;12240;51.142;22.486;2023-08-12T02:38:24;8.93;;;4.03;;
24030;SDS011;12240;51.142;22.486;2023-08-12T02:40:53;7.85;;;3.88;;
24030;SDS011;12240;51.142;22.486;2023-08-12T02:43:21;9.18;;;3.80;;
24030;SDS011;12240;51.142;22.486;2023-08-12T02:45:49;12.48;;;4.57;;
24030;SDS011;12240;51.142;22.486;2023-08-12T02:48:17;8.07;;;4.32;;
24030;SDS011;12240;51.142;22.486;2023-08-12T02:50:45;9.60;;;4.38;;
24030;SDS011;12240;51.142;22.486;2023-08-12T02:53:14;8.32;;;3.97;;
24030;SDS011;12240;51.142;22.486;2023-08-12T02:55:46;8.95;;;4.25;;
24030;SDS011;12240;51.142;22.486;2023-08-12T02:58:15;12.32;;;4.50;;
24030;SDS011;12240;51.142;22.486;2023-08-12T03:00:43;10.45;;;4.93;;
24030;SDS011;12240;51.142;22.486;2023-08-12T03:03:12;8.68;;;4.38;;
24030;SDS011;12240;51.142;22.486;2023-08-12T03:05:41;10.48;;;4.28;;
24030;SDS011;12240;51.142;22.486;2023-08-12T03:08:12;8.45;;;4.40;;
24030;SDS011;12240;51.142;22.486;2023-08-12T03:10:42;6.75;;;4.03;;
24030;SDS011;12240;51.142;22.486;2023-08-12T03:15:42;10.45;;;3.90;;
24030;SDS011;12240;51.142;22.486;2023-08-12T03:18:10;10.20;;;4.00;;
24030;SDS011;12240;51.142;22.486;2023-08-12T03:20:39;7.65;;;3.83;;
24030;SDS011;12240;51.142;22.486;2023-08-12T03:23:07;8.20;;;3.72;;
24030;SDS011;12240;51.142;22.486;2023-08-12T03:25:37;10.07;;;4.32;;
24030;SDS011;12240;51.142;22.486;2023-08-12T03:28:07;9.73;;;4.28;;
24030;SDS011;12240;51.142;22.486;2023-08-12T03:30:37;8.20;;;3.92;;
24030;SDS011;12240;51.142;22.486;2023-08-12T03:33:05;9.75;;;4.25;;
24030;SDS011;12240;51.142;22.486;2023-08-12T03:35:36;8.57;;;3.88;;
24030;SDS011;12240;51.142;22.486;2023-08-12T03:38:05;8.57;;;4.45;;
24030;SDS011;12240;51.142;22.486;2023-08-12T03:40:37;8.48;;;3.88;;
24030;SDS011;12240;51.142;22.486;2023-08-12T03:43:07;10.90;;;4.90;;
24030;SDS011;12240;51.142;22.486;2023-08-12T03:45:40;9.30;;;4.03;;
24030;SDS011;12240;51.142;22.486;2023-08-12T03:48:12;8.80;;;4.13;;
24030;SDS011;12240;51.142;22.486;2023-08-12T03:50:41;11.07;;;4.63;;
24030;SDS011;12240;51.142;22.486;2023-08-12T03:53:09;12.73;;;3.88;;
24030;SDS011;12240;51.142;22.486;2023-08-12T03:55:39;11.88;;;4.18;;
24030;SDS011;12240;51.142;22.486;2023-08-12T03:58:09;9.73;;;4.35;;
24030;SDS011;12240;51.142;22.486;2023-08-12T04:00:41;7.97;;;4.22;;
24030;SDS011;12240;51.142;22.486;2023-08-12T04:03:12;10.65;;;4.55;;
24030;SDS011;12240;51.142;22.486;2023-08-12T04:05:48;14.98;;;4.53;;
24030;SDS011;12240;51.142;22.486;2023-08-12T04:08:21;13.90;;;4.47;;
24030;SDS011;12240;51.142;22.486;2023-08-12T04:10:51;8.23;;;4.03;;
24030;SDS011;12240;51.142;22.486;2023-08-12T04:13:19;9.63;;;4.10;;
24030;SDS011;12240;51.142;22.486;2023-08-12T04:15:48;9.27;;;3.95;;
24030;SDS011;12240;51.142;22.486;2023-08-12T04:18:18;9.50;;;4.63;;
24030;SDS011;12240;51.142;22.486;2023-08-12T04:20:50;9.50;;;5.68;;
24030;SDS011;12240;51.142;22.486;2023-08-12T04:23:21;8.52;;;4.57;;
24030;SDS011;12240;51.142;22.486;2023-08-12T04:25:52;15.20;;;5.28;;
24030;SDS011;12240;51.142;22.486;2023-08-12T04:28:25;10.50;;;4.50;;
24030;SDS011;12240;51.142;22.486;2023-08-12T04:30:53;10.68;;;5.05;;
24030;SDS011;12240;51.142;22.486;2023-08-12T04:33:23;11.25;;;4.55;;
24030;SDS011;12240;51.142;22.486;2023-08-12T04:35:52;8.82;;;4.32;;
24030;SDS011;12240;51.142;22.486;2023-08-12T04:38:22;11.07;;;4.85;;
24030;SDS011;12240;51.142;22.486;2023-08-12T04:40:53;8.88;;;4.25;;
24030;SDS011;12240;51.142;22.486;2023-08-12T04:43:22;8.45;;;4.18;;
24030;SDS011;12240;51.142;22.486;2023-08-12T04:45:52;12.10;;;4.20;;
24030;SDS011;12240;51.142;22.486;2023-08-12T04:48:21;8.63;;;4.13;;
24030;SDS011;12240;51.142;22.486;2023-08-12T04:50:49;10.23;;;4.70;;
24030;SDS011;12240;51.142;22.486;2023-08-12T04:53:18;9.70;;;4.43;;
24030;SDS011;12240;51.142;22.486;2023-08-12T04:55:49;11.65;;;4.43;;
24030;SDS011;12240;51.142;22.486;2023-08-12T04:58:19;9.88;;;4.30;;
24030;SDS011;12240;51.142;22.486;2023-08-12T05:00:48;10.80;;;4.47;;
24030;SDS011;12240;51.142;22.486;2023-08-12T05:03:21;11.90;;;4.22;;
24030;SDS011;12240;51.142;22.486;2023-08-12T05:05:51;9.85;;;4.68;;
24030;SDS011;12240;51.142;22.486;2023-08-12T05:08:24;7.15;;;4.32;;
24030;SDS011;12240;51.142;22.486;2023-08-12T05:10:52;9.73;;;4.03;;
24030;SDS011;12240;51.142;22.486;2023-08-12T05:13:20;11.90;;;4.43;;
24030;SDS011;12240;51.142;22.486;2023-08-12T05:15:51;8.90;;;4.53;;
24030;SDS011;12240;51.142;22.486;2023-08-12T05:18:21;11.68;;;4.43;;
24030;SDS011;12240;51.142;22.486;2023-08-12T05:20:51;7.82;;;4.57;;
24030;SDS011;12240;51.142;22.486;2023-08-12T05:23:20;9.50;;;4.75;;
24030;SDS011;12240;51.142;22.486;2023-08-12T05:25:48;13.27;;;4.40;;
24030;SDS011;12240;51.142;22.486;2023-08-12T05:28:20;9.20;;;4.85;;
24030;SDS011;12240;51.142;22.486;2023-08-12T05:30:48;10.25;;;4.72;;
24030;SDS011;12240;51.142;22.486;2023-08-12T05:33:16;13.55;;;5.00;;
24030;SDS011;12240;51.142;22.486;2023-08-12T05:35:47;9.40;;;4.30;;
24030;SDS011;12240;51.142;22.486;2023-08-12T05:38:16;8.95;;;4.18;;
24030;SDS011;12240;51.142;22.486;2023-08-12T05:40:44;8.55;;;3.97;;
24030;SDS011;12240;51.142;22.486;2023-08-12T05:43:12;9.60;;;4.25;;
24030;SDS011;12240;51.142;22.486;2023-08-12T05:45:40;10.68;;;3.53;;
24030;SDS011;12240;51.142;22.486;2023-08-12T05:48:09;9.15;;;4.15;;
24030;SDS011;12240;51.142;22.486;2023-08-12T05:50:38;8.52;;;3.72;;
24030;SDS011;12240;51.142;22.486;2023-08-12T05:53:07;8.00;;;4.25;;
24030;SDS011;12240;51.142;22.486;2023-08-12T05:55:36;10.25;;;4.00;;
24030;SDS011;12240;51.142;22.486;2023-08-12T05:58:04;6.18;;;3.30;;
24030;SDS011;12240;51.142;22.486;2023-08-12T06:00:32;9.52;;;4.03;;
24030;SDS011;12240;51.142;22.486;2023-08-12T06:03:00;7.40;;;3.53;;
24030;SDS011;12240;51.142;22.486;2023-08-12T06:05:29;8.18;;;3.33;;
24030;SDS011;12240;51.142;22.486;2023-08-12T06:07:57;9.20;;;3.50;;
24030;SDS011;12240;51.142;22.486;2023-08-12T06:10:26;6.28;;;3.03;;
24030;SDS011;12240;51.142;22.486;2023-08-12T06:12:54;8.60;;;3.08;;
24030;SDS011;12240;51.142;22.486;2023-08-12T06:15:22;5.22;;;2.55;;
24030;SDS011;12240;51.142;22.486;2023-08-12T06:17:50;7.43;;;2.67;;
24030;SDS011;12240;51.142;22.486;2023-08-12T06:20:18;7.55;;;3.10;;
24030;SDS011;12240;51.142;22.486;2023-08-12T06:22:48;6.90;;;3.08;;
24030;SDS011;12240;51.142;22.486;2023-08-12T06:25:17;9.50;;;3.60;;
24030;SDS011;12240;51.142;22.486;2023-08-12T06:27:46;5.00;;;2.90;;
24030;SDS011;12240;51.142;22.486;2023-08-12T06:30:14;5.60;;;2.90;;
24030;SDS011;12240;51.142;22.486;2023-08-12T06:32:42;7.63;;;3.28;;
24030;SDS011;12240;51.142;22.486;2023-08-12T06:35:11;10.05;;;3.05;;
24030;SDS011;12240;51.142;22.486;2023-08-12T06:37:39;5.35;;;2.63;;
24030;SDS011;12240;51.142;22.486;2023-08-12T06:40:08;7.47;;;2.97;;
24030;SDS011;12240;51.142;22.486;2023-08-12T06:42:37;3.85;;;2.30;;
24030;SDS011;12240;51.142;22.486;2023-08-12T06:45:06;8.70;;;2.55;;
24030;SDS011;12240;51.142;22.486;2023-08-12T06:47:35;5.55;;;2.20;;
24030;SDS011;12240;51.142;22.486;2023-08-12T06:50:03;5.28;;;2.25;;
24030;SDS011;12240;51.142;22.486;2023-08-12T06:52:32;7.97;;;2.20;;
24030;SDS011;12240;51.142;22.486;2023-08-12T06:55:00;7.63;;;3.15;;
24030;SDS011;12240;51.142;22.486;2023-08-12T06:57:29;7.47;;;2.00;;
24030;SDS011;12240;51.142;22.486;2023-08-12T06:59:57;3.55;;;2.25;;
24030;SDS011;12240;51.142;22.486;2023-08-12T07:02:25;5.57;;;1.88;;
24030;SDS011;12240;51.142;22.486;2023-08-12T07:04:54;5.38;;;2.15;;
24030;SDS011;12240;51.142;22.486;2023-08-12T07:07:22;4.88;;;2.50;;
24030;SDS011;12240;51.142;22.486;2023-08-12T07:09:50;5.55;;;2.15;;
24030;SDS011;12240;51.142;22.486;2023-08-12T07:12:18;5.38;;;2.05;;
24030;SDS011;12240;51.142;22.486;2023-08-12T07:14:47;5.00;;;2.00;;
24030;SDS011;12240;51.142;22.486;2023-08-12T07:17:15;3.78;;;2.00;;
24030;SDS011;12240;51.142;22.486;2023-08-12T07:19:43;7.57;;;2.25;;
24030;SDS011;12240;51.142;22.486;2023-08-12T07:22:12;4.57;;;2.25;;
24030;SDS011;12240;51.142;22.486;2023-08-12T07:24:40;6.13;;;2.08;;
24030;SDS011;12240;51.142;22.486;2023-08-12T07:27:09;6.78;;;2.40;;
24030;SDS011;12240;51.142;22.486;2023-08-12T07:29:38;5.03;;;2.05;;
24030;SDS011;12240;51.142;22.486;2023-08-12T07:32:06;3.65;;;1.90;;
24030;SDS011;12240;51.142;22.486;2023-08-12T07:34:35;5.68;;;1.98;;
24030;SDS011;12240;51.142;22.486;2023-08-12T07:37:03;9.20;;;2.40;;
24030;SDS011;12240;51.142;22.486;2023-08-12T07:39:31;3.88;;;2.00;;
24030;SDS011;12240;51.142;22.486;2023-08-12T07:42:00;8.70;;;2.03;;
24030;SDS011;12240;51.142;22.486;2023-08-12T07:44:29;4.65;;;1.83;;
24030;SDS011;12240;51.142;22.486;2023-08-12T07:46:57;5.32;;;1.60;;
24030;SDS011;12240;51.142;22.486;2023-08-12T07:49:26;3.70;;;1.48;;
24030;SDS011;12240;51.142;22.486;2023-08-12T07:51:54;5.22;;;1.50;;
24030;SDS011;12240;51.142;22.486;2023-08-12T07:54:22;4.45;;;1.48;;
24030;SDS011;12240;51.142;22.486;2023-08-12T07:56:50;4.82;;;1.40;;
24030;SDS011;12240;51.142;22.486;2023-08-12T07:59:20;3.10;;;1.30;;
24030;SDS011;12240;51.142;22.486;2023-08-12T08:01:49;3.70;;;1.10;;
24030;SDS011;12240;51.142;22.486;2023-08-12T08:04:17;4.13;;;1.52;;
24030;SDS011;12240;51.142;22.486;2023-08-12T08:06:45;3.42;;;1.35;;
24030;SDS011;12240;51.142;22.486;2023-08-12T08:09:17;6.38;;;1.30;;
24030;SDS011;12240;51.142;22.486;2023-08-12T08:11:45;2.22;;;1.15;;
24030;SDS011;12240;51.142;22.486;2023-08-12T08:14:14;3.95;;;1.30;;
24030;SDS011;12240;51.142;22.486;2023-08-12T08:16:42;4.45;;;1.52;;
24030;SDS011;12240;51.142;22.486;2023-08-12T08:19:11;4.40;;;1.63;;
24030;SDS011;12240;51.142;22.486;2023-08-12T08:21:40;4.70;;;1.55;;
24030;SDS011;12240;51.142;22.486;2023-08-12T08:24:08;7.57;;;1.88;;
24030;SDS011;12240;51.142;22.486;2023-08-12T08:26:39;4.38;;;1.50;;
24030;SDS011;12240;51.142;22.486;2023-08-12T08:29:13;6.93;;;1.73;;
24030;SDS011;12240;51.142;22.486;2023-08-12T08:31:41;3.50;;;1.45;;
24030;SDS011;12240;51.142;22.486;2023-08-12T08:34:09;5.03;;;1.55;;
24030;SDS011;12240;51.142;22.486;2023-08-12T08:36:38;8.77;;;2.05;;
24030;SDS011;12240;51.142;22.486;2023-08-12T08:39:06;4.60;;;1.42;;
24030;SDS011;12240;51.142;22.486;2023-08-12T08:41:38;3.20;;;1.40;;
24030;SDS011;12240;51.142;22.486;2023-08-12T08:44:08;3.03;;;1.50;;
24030;SDS011;12240;51.142;22.486;2023-08-12T08:46:36;5.00;;;1.70;;
24030;SDS011;12240;51.142;22.486;2023-08-12T08:49:04;4.90;;;1.27;;
24030;SDS011;12240;51.142;22.486;2023-08-12T08:51:34;4.97;;;1.40;;
24030;SDS011;12240;51.142;22.486;2023-08-12T08:54:03;4.78;;;1.83;;
24030;SDS011;12240;51.142;22.486;2023-08-12T08:56:32;6.97;;;1.38;;
24030;SDS011;12240;51.142;22.486;2023-08-12T08:59:06;2.63;;;1.05;;
24030;SDS011;12240;51.142;22.486;2023-08-12T09:01:35;2.60;;;1.30;;
24030;SDS011;12240;51.142;22.486;2023-08-12T09:04:05;12.15;;;1.48;;
24030;SDS011;12240;51.142;22.486;2023-08-12T09:06:34;4.65;;;1.40;;
24030;SDS011;12240;51.142;22.486;2023-08-12T09:09:10;3.67;;;1.42;;
24030;SDS011;12240;51.142;22.486;2023-08-12T09:11:43;3.85;;;1.30;;
24030;SDS011;12240;51.142;22.486;2023-08-12T09:14:12;6.80;;;1.70;;
24030;SDS011;12240;51.142;22.486;2023-08-12T09:16:41;3.35;;;1.60;;
24030;SDS011;12240;51.142;22.486;2023-08-12T09:19:09;2.53;;;1.40;;
24030;SDS011;12240;51.142;22.486;2023-08-12T09:21:37;5.55;;;1.70;;
24030;SDS011;12240;51.142;22.486;2023-08-12T09:24:07;5.35;;;1.33;;
24030;SDS011;12240;51.142;22.486;2023-08-12T09:26:35;5.10;;;1.25;;
24030;SDS011;12240;51.142;22.486;2023-08-12T09:29:04;3.83;;;1.40;;
24030;SDS011;12240;51.142;22.486;2023-08-12T09:31:32;4.03;;;1.40;;
24030;SDS011;12240;51.142;22.486;2023-08-12T09:34:04;4.00;;;1.40;;
24030;SDS011;12240;51.142;22.486;2023-08-12T09:36:36;4.68;;;1.67;;
24030;SDS011;12240;51.142;22.486;2023-08-12T09:39:07;5.07;;;1.73;;
24030;SDS011;12240;51.142;22.486;2023-08-12T09:41:37;3.92;;;1.50;;
24030;SDS011;12240;51.142;22.486;2023-08-12T09:44:06;4.87;;;1.53;;
24030;SDS011;12240;51.142;22.486;2023-08-12T09:46:36;6.57;;;1.67;;
24030;SDS011;12240;51.142;22.486;2023-08-12T09:49:06;3.95;;;1.63;;
24030;SDS011;12240;51.142;22.486;2023-08-12T09:51:35;4.20;;;1.52;;
24030;SDS011;12240;51.142;22.486;2023-08-12T09:54:04;5.15;;;1.60;;
24030;SDS011;12240;51.142;22.486;2023-08-12T09:56:33;6.25;;;2.03;;
24030;SDS011;12240;51.142;22.486;2023-08-12T09:59:07;7.53;;;1.58;;
24030;SDS011;12240;51.142;22.486;2023-08-12T10:01:37;4.35;;;1.40;;
24030;SDS011;12240;51.142;22.486;2023-08-12T10:04:11;2.25;;;1.33;;
24030;SDS011;12240;51.142;22.486;2023-08-12T10:06:42;4.32;;;1.40;;
24030;SDS011;12240;51.142;22.486;2023-08-12T10:09:11;3.45;;;1.52;;
24030;SDS011;12240;51.142;22.486;2023-08-12T10:11:41;6.53;;;1.70;;
24030;SDS011;12240;51.142;22.486;2023-08-12T10:14:11;1.67;;;1.25;;
24030;SDS011;12240;51.142;22.486;2023-08-12T10:16:41;7.25;;;1.90;;
24030;SDS011;12240;51.142;22.486;2023-08-12T10:19:14;3.20;;;1.50;;
24030;SDS011;12240;51.142;22.486;2023-08-12T10:21:45;4.75;;;1.80;;
24030;SDS011;12240;51.142;22.486;2023-08-12T10:24:15;5.97;;;1.58;;
24030;SDS011;12240;51.142;22.486;2023-08-12T10:26:44;8.07;;;1.73;;
24030;SDS011;12240;51.142;22.486;2023-08-12T10:29:14;10.48;;;1.70;;
24030;SDS011;12240;51.142;22.486;2023-08-12T10:31:43;9.32;;;1.70;;
24030;SDS011;12240;51.142;22.486;2023-08-12T10:34:21;7.03;;;1.70;;
24030;SDS011;12240;51.142;22.486;2023-08-12T10:36:55;4.68;;;1.58;;
24030;SDS011;12240;51.142;22.486;2023-08-12T10:39:33;6.20;;;1.80;;
24030;SDS011;12240;51.142;22.486;2023-08-12T10:42:02;3.50;;;1.60;;
24030;SDS011;12240;51.142;22.486;2023-08-12T10:44:50;3.85;;;1.60;;
24030;SDS011;12240;51.142;22.486;2023-08-12T10:47:20;3.30;;;1.88;;
24030;SDS011;12240;51.142;22.486;2023-08-12T10:49:49;7.22;;;1.70;;
24030;SDS011;12240;51.142;22.486;2023-08-12T10:55:18;5.18;;;2.00;;
24030;SDS011;12240;51.142;22.486;2023-08-12T10:57:52;3.10;;;1.80;;
24030;SDS011;12240;51.142;22.486;2023-08-12T11:02:56;5.35;;;1.83;;
24030;SDS011;12240;51.142;22.486;2023-08-12T11:05:35;2.97;;;1.40;;
24030;SDS011;12240;51.142;22.486;2023-08-12T11:08:05;2.75;;;1.52;;
24030;SDS011;12240;51.142;22.486;2023-08-12T11:10:34;7.28;;;2.35;;
24030;SDS011;12240;51.142;22.486;2023-08-12T11:13:02;3.92;;;1.60;;
24030;SDS011;12240;51.142;22.486;2023-08-12T11:18:02;5.03;;;1.85;;
24030;SDS011;12240;51.142;22.486;2023-08-12T11:23:02;4.70;;;1.92;;
24030;SDS011;12240;51.142;22.486;2023-08-12T11:25:32;5.00;;;2.00;;
24030;SDS011;12240;51.142;22.486;2023-08-12T11:28:02;6.18;;;1.90;;
24030;SDS011;12240;51.142;22.486;2023-08-12T11:30:32;4.65;;;1.92;;
24030;SDS011;12240;51.142;22.486;2023-08-12T11:33:02;9.02;;;2.08;;
24030;SDS011;12240;51.142;22.486;2023-08-12T11:35:31;3.60;;;1.90;;
24030;SDS011;12240;51.142;22.486;2023-08-12T11:37:59;15.23;;;2.30;;
24030;SDS011;12240;51.142;22.486;2023-08-12T11:40:27;11.20;;;2.35;;
24030;SDS011;12240;51.142;22.486;2023-08-12T11:42:56;8.00;;;1.70;;
24030;SDS011;12240;51.142;22.486;2023-08-12T11:45:25;4.53;;;1.80;;
24030;SDS011;12240;51.142;22.486;2023-08-12T11:47:55;4.35;;;1.75;;
24030;SDS011;12240;51.142;22.486;2023-08-12T11:50:24;7.30;;;2.10;;
24030;SDS011;12240;51.142;22.486;2023-08-12T11:52:55;6.55;;;1.60;;
24030;SDS011;12240;51.142;22.486;2023-08-12T11:55:24;4.05;;;1.70;;
24030;SDS011;12240;51.142;22.486;2023-08-12T11:57:52;7.60;;;1.70;;
24030;SDS011;12240;51.142;22.486;2023-08-12T12:00:21;6.03;;;1.60;;
24030;SDS011;12240;51.142;22.486;2023-08-12T12:02:55;2.67;;;1.60;;
24030;SDS011;12240;51.142;22.486;2023-08-12T12:05:27;2.28;;;1.42;;
24030;SDS011;12240;51.142;22.486;2023-08-12T12:07:59;5.53;;;1.70;;
24030;SDS011;12240;51.142;22.486;2023-08-12T12:10:31;7.72;;;1.77;;
24030;SDS011;12240;51.142;22.486;2023-08-12T12:13:02;5.30;;;1.55;;
24030;SDS011;12240;51.142;22.486;2023-08-12T12:15:37;5.45;;;1.70;;
24030;SDS011;12240;51.142;22.486;2023-08-12T12:18:12;3.67;;;1.50;;
24030;SDS011;12240;51.142;22.486;2023-08-12T12:20:53;11.68;;;1.90;;
24030;SDS011;12240;51.142;22.486;2023-08-12T12:23:30;5.03;;;1.70;;
24030;SDS011;12240;51.142;22.486;2023-08-12T12:28:29;3.28;;;1.30;;
24030;SDS011;12240;51.142;22.486;2023-08-12T12:30:57;4.80;;;1.40;;
24030;SDS011;12240;51.142;22.486;2023-08-12T12:33:26;3.22;;;1.50;;
24030;SDS011;12240;51.142;22.486;2023-08-12T12:35:54;4.40;;;1.40;;
24030;SDS011;12240;51.142;22.486;2023-08-12T12:38:27;6.72;;;1.30;;
24030;SDS011;12240;51.142;22.486;2023-08-12T12:40:56;3.80;;;1.65;;
24030;SDS011;12240;51.142;22.486;2023-08-12T12:43:24;5.70;;;1.98;;
24030;SDS011;12240;51.142;22.486;2023-08-12T12:45:52;3.90;;;1.67;;
24030;SDS011;12240;51.142;22.486;2023-08-12T12:48:20;6.88;;;1.60;;
24030;SDS011;12240;51.142;22.486;2023-08-12T12:50:48;4.07;;;1.42;;
24030;SDS011;12240;51.142;22.486;2023-08-12T12:53:16;4.07;;;1.67;;
24030;SDS011;12240;51.142;22.486;2023-08-12T12:55:44;5.40;;;1.60;;
24030;SDS011;12240;51.142;22.486;2023-08-12T12:58:13;4.30;;;1.40;;
24030;SDS011;12240;51.142;22.486;2023-08-12T13:00:41;4.07;;;1.40;;
24030;SDS011;12240;51.142;22.486;2023-08-12T13:03:09;5.40;;;1.33;;
24030;SDS011;12240;51.142;22.486;2023-08-12T13:05:37;5.93;;;1.45;;
24030;SDS011;12240;51.142;22.486;2023-08-12T13:08:06;3.58;;;1.60;;
24030;SDS011;12240;51.142;22.486;2023-08-12T13:10:34;5.18;;;1.60;;
24030;SDS011;12240;51.142;22.486;2023-08-12T13:13:03;3.97;;;1.52;;
24030;SDS011;12240;51.142;22.486;2023-08-12T13:15:31;3.38;;;1.42;;
24030;SDS011;12240;51.142;22.486;2023-08-12T13:18:01;2.87;;;1.50;;
24030;SDS011;12240;51.142;22.486;2023-08-12T13:20:30;3.67;;;1.45;;
24030;SDS011;12240;51.142;22.486;2023-08-12T13:22:58;4.63;;;1.45;;
24030;SDS011;12240;51.142;22.486;2023-08-12T13:25:29;5.43;;;1.30;;
24030;SDS011;12240;51.142;22.486;2023-08-12T13:28:00;4.25;;;1.33;;
24030;SDS011;12240;51.142;22.486;2023-08-12T13:30:30;5.30;;;1.30;;
24030;SDS011;12240;51.142;22.486;2023-08-12T13:32:59;3.30;;;1.45;;
24030;SDS011;12240;51.142;22.486;2023-08-12T13:35:28;5.55;;;1.55;;
24030;SDS011;12240;51.142;22.486;2023-08-12T13:37:57;3.25;;;1.40;;
24030;SDS011;12240;51.142;22.486;2023-08-12T13:40:26;4.47;;;1.30;;
24030;SDS011;12240;51.142;22.486;2023-08-12T13:42:54;3.88;;;1.42;;
24030;SDS011;12240;51.142;22.486;2023-08-12T13:45:23;2.22;;;1.15;;
24030;SDS011;12240;51.142;22.486;2023-08-12T13:47:51;4.72;;;1.60;;
24030;SDS011;12240;51.142;22.486;2023-08-12T13:50:20;6.93;;;1.55;;
24030;SDS011;12240;51.142;22.486;2023-08-12T13:52:48;2.60;;;1.20;;
24030;SDS011;12240;51.142;22.486;2023-08-12T13:55:20;4.47;;;1.55;;
24030;SDS011;12240;51.142;22.486;2023-08-12T13:57:49;5.43;;;1.40;;
24030;SDS011;12240;51.142;22.486;2023-08-12T14:00:17;2.70;;;1.25;;
24030;SDS011;12240;51.142;22.486;2023-08-12T14:02:46;5.10;;;1.20;;
24030;SDS011;12240;51.142;22.486;2023-08-12T14:05:16;2.10;;;1.33;;
24030;SDS011;12240;51.142;22.486;2023-08-12T14:07:45;4.70;;;1.48;;
24030;SDS011;12240;51.142;22.486;2023-08-12T14:10:13;4.53;;;1.48;;
24030;SDS011;12240;51.142;22.486;2023-08-12T14:12:42;4.55;;;1.48;;
24030;SDS011;12240;51.142;22.486;2023-08-12T14:15:10;3.25;;;1.40;;
24030;SDS011;12240;51.142;22.486;2023-08-12T14:17:39;4.35;;;1.38;;
24030;SDS011;12240;51.142;22.486;2023-08-12T14:20:07;2.90;;;1.33;;
24030;SDS011;12240;51.142;22.486;2023-08-12T14:22:36;3.03;;;1.27;;
24030;SDS011;12240;51.142;22.486;2023-08-12T14:25:04;4.90;;;1.60;;
24030;SDS011;12240;51.142;22.486;2023-08-12T14:27:33;3.22;;;1.60;;
24030;SDS011;12240;51.142;22.486;2023-08-12T14:30:02;5.78;;;1.40;;
24030;SDS011;12240;51.142;22.486;2023-08-12T14:32:31;5.10;;;1.35;;
24030;SDS011;12240;51.142;22.486;2023-08-12T14:34:59;4.13;;;1.58;;
24030;SDS011;12240;51.142;22.486;2023-08-12T14:37:27;4.60;;;1.45;;
24030;SDS011;12240;51.142;22.486;2023-08-12T14:39:56;2.35;;;1.25;;
24030;SDS011;12240;51.142;22.486;2023-08-12T14:42:24;2.72;;;1.40;;
24030;SDS011;12240;51.142;22.486;2023-08-12T14:44:53;4.50;;;1.73;;
24030;SDS011;12240;51.142;22.486;2023-08-12T14:47:22;2.63;;;1.65;;
24030;SDS011;12240;51.142;22.486;2023-08-12T14:49:50;4.95;;;1.38;;
24030;SDS011;12240;51.142;22.486;2023-08-12T14:52:20;6.07;;;1.63;;
24030;SDS011;12240;51.142;22.486;2023-08-12T14:54:50;3.65;;;1.42;;
24030;SDS011;12240;51.142;22.486;2023-08-12T14:57:18;2.70;;;1.50;;
24030;SDS011;12240;51.142;22.486;2023-08-12T14:59:47;4.28;;;1.35;;
24030;SDS011;12240;51.142;22.486;2023-08-12T15:02:19;4.20;;;1.55;;